LFOE 200500Z AUTO 00000KT CAVOK 11/10 Q1023 NOSIG

ElémentsDécodage
LFOE Station météo située sur l'aérodrome de EVREUX Fauville
200500Z émis le 20 du mois à 05h00 UTC
AUTO Bulletin édité par un automate
00000KT vent nul
CAVOK Ceiling And Visibility OK
- Visibilité de 10 Km ou plus
- Pas de nuage au-dessous de 1500m ou au-dessous de l'altitude minimale du secteur la plus élevée (si>1500m) et absence de CB
- pas de temps présent significatif
11/10 température 11°C, point de rosée 10°C
 soit une humidité relative de 94%
Q1023 la pression au niveau de la mer (QNH) est de 1023 hPa
NOSIG Pas de changement significatif prévu au cours des deux heures suivant l'heure de l'observation